sensor_id;sensor_type;location;lat;lon;timestamp;P1;durP1;ratioP1;P2;durP2;ratioP2
17753;SDS011;8999;48.994;9.150;2022-12-18T00:02:02;101.03;;;42.63;;
17753;SDS011;8999;48.994;9.150;2022-12-18T00:04:33;92.97;;;41.17;;
17753;SDS011;8999;48.994;9.150;2022-12-18T00:07:07;91.73;;;41.90;;
17753;SDS011;8999;48.994;9.150;2022-12-18T00:09:39;96.67;;;42.77;;
17753;SDS011;8999;48.994;9.150;2022-12-18T00:12:10;90.80;;;41.70;;
17753;SDS011;8999;48.994;9.150;2022-12-18T00:14:42;91.03;;;41.00;;
17753;SDS011;8999;48.994;9.150;2022-12-18T00:17:15;86.77;;;39.80;;
17753;SDS011;8999;48.994;9.150;2022-12-18T00:19:47;97.33;;;42.30;;
17753;SDS011;8999;48.994;9.150;2022-12-18T00:22:18;89.73;;;39.93;;
17753;SDS011;8999;48.994;9.150;2022-12-18T00:24:50;83.47;;;39.47;;
17753;SDS011;8999;48.994;9.150;2022-12-18T00:27:22;86.23;;;40.00;;
17753;SDS011;8999;48.994;9.150;2022-12-18T00:29:53;82.90;;;37.73;;
17753;SDS011;8999;48.994;9.150;2022-12-18T00:32:26;82.00;;;38.20;;
17753;SDS011;8999;48.994;9.150;2022-12-18T00:34:58;80.63;;;35.70;;
17753;SDS011;8999;48.994;9.150;2022-12-18T00:37:29;81.70;;;36.30;;
17753;SDS011;8999;48.994;9.150;2022-12-18T00:40:01;86.63;;;38.07;;
17753;SDS011;8999;48.994;9.150;2022-12-18T00:42:33;76.37;;;36.33;;
17753;SDS011;8999;48.994;9.150;2022-12-18T00:45:23;80.43;;;36.07;;
17753;SDS011;8999;48.994;9.150;2022-12-18T00:47:57;85.83;;;35.30;;
17753;SDS011;8999;48.994;9.150;2022-12-18T00:50:29;84.20;;;36.33;;
17753;SDS011;8999;48.994;9.150;2022-12-18T00:53:01;82.00;;;37.13;;
17753;SDS011;8999;48.994;9.150;2022-12-18T00:55:32;74.80;;;33.57;;
17753;SDS011;8999;48.994;9.150;2022-12-18T00:58:04;82.20;;;36.27;;
17753;SDS011;8999;48.994;9.150;2022-12-18T01:00:36;72.33;;;33.03;;
17753;SDS011;8999;48.994;9.150;2022-12-18T01:03:10;79.63;;;35.07;;
17753;SDS011;8999;48.994;9.150;2022-12-18T01:05:44;75.77;;;32.77;;
17753;SDS011;8999;48.994;9.150;2022-12-18T01:08:16;89.00;;;38.20;;
17753;SDS011;8999;48.994;9.150;2022-12-18T01:10:47;85.93;;;38.53;;
17753;SDS011;8999;48.994;9.150;2022-12-18T01:13:19;91.93;;;40.33;;
17753;SDS011;8999;48.994;9.150;2022-12-18T01:15:51;82.93;;;38.33;;
17753;SDS011;8999;48.994;9.150;2022-12-18T01:21:07;86.37;;;38.83;;
17753;SDS011;8999;48.994;9.150;2022-12-18T01:23:39;92.27;;;40.70;;
17753;SDS011;8999;48.994;9.150;2022-12-18T01:26:11;90.93;;;41.17;;
17753;SDS011;8999;48.994;9.150;2022-12-18T01:28:46;98.27;;;41.77;;
17753;SDS011;8999;48.994;9.150;2022-12-18T01:31:18;95.37;;;39.40;;
17753;SDS011;8999;48.994;9.150;2022-12-18T01:33:51;83.10;;;38.97;;
17753;SDS011;8999;48.994;9.150;2022-12-18T01:36:25;78.57;;;37.40;;
17753;SDS011;8999;48.994;9.150;2022-12-18T01:38:58;92.73;;;38.87;;
17753;SDS011;8999;48.994;9.150;2022-12-18T01:41:31;98.47;;;41.17;;
17753;SDS011;8999;48.994;9.150;2022-12-18T01:47:30;95.63;;;41.83;;
17753;SDS011;8999;48.994;9.150;2022-12-18T01:50:06;91.87;;;41.43;;
17753;SDS011;8999;48.994;9.150;2022-12-18T01:52:42;90.33;;;38.67;;
17753;SDS011;8999;48.994;9.150;2022-12-18T01:55:17;81.03;;;38.07;;
17753;SDS011;8999;48.994;9.150;2022-12-18T01:57:51;84.93;;;38.33;;
17753;SDS011;8999;48.994;9.150;2022-12-18T02:00:24;87.30;;;37.37;;
17753;SDS011;8999;48.994;9.150;2022-12-18T02:02:56;79.43;;;36.00;;
17753;SDS011;8999;48.994;9.150;2022-12-18T02:05:31;84.40;;;37.13;;
17753;SDS011;8999;48.994;9.150;2022-12-18T02:08:10;86.20;;;37.07;;
17753;SDS011;8999;48.994;9.150;2022-12-18T02:10:46;82.30;;;36.10;;
17753;SDS011;8999;48.994;9.150;2022-12-18T02:13:20;72.40;;;35.13;;
17753;SDS011;8999;48.994;9.150;2022-12-18T02:16:05;85.33;;;37.10;;
17753;SDS011;8999;48.994;9.150;2022-12-18T02:18:41;85.43;;;37.60;;
17753;SDS011;8999;48.994;9.150;2022-12-18T02:21:17;90.13;;;37.50;;
17753;SDS011;8999;48.994;9.150;2022-12-18T02:23:56;88.00;;;37.97;;
17753;SDS011;8999;48.994;9.150;2022-12-18T02:26:33;89.20;;;39.97;;
17753;SDS011;8999;48.994;9.150;2022-12-18T02:29:09;87.43;;;38.63;;
17753;SDS011;8999;48.994;9.150;2022-12-18T02:31:44;85.33;;;39.50;;
17753;SDS011;8999;48.994;9.150;2022-12-18T02:34:19;87.60;;;38.33;;
17753;SDS011;8999;48.994;9.150;2022-12-18T02:36:51;89.83;;;41.23;;
17753;SDS011;8999;48.994;9.150;2022-12-18T02:39:25;89.77;;;41.43;;
17753;SDS011;8999;48.994;9.150;2022-12-18T02:41:59;94.47;;;40.60;;
17753;SDS011;8999;48.994;9.150;2022-12-18T02:44:41;80.60;;;37.53;;
17753;SDS011;8999;48.994;9.150;2022-12-18T02:47:14;88.17;;;38.50;;
17753;SDS011;8999;48.994;9.150;2022-12-18T02:49:49;79.27;;;35.77;;
17753;SDS011;8999;48.994;9.150;2022-12-18T02:52:27;79.90;;;37.73;;
17753;SDS011;8999;48.994;9.150;2022-12-18T02:55:07;80.63;;;37.03;;
17753;SDS011;8999;48.994;9.150;2022-12-18T02:57:46;81.33;;;36.87;;
17753;SDS011;8999;48.994;9.150;2022-12-18T03:00:21;83.37;;;38.13;;
17753;SDS011;8999;48.994;9.150;2022-12-18T03:02:55;85.10;;;37.30;;
17753;SDS011;8999;48.994;9.150;2022-12-18T03:05:31;88.43;;;37.57;;
17753;SDS011;8999;48.994;9.150;2022-12-18T03:08:07;79.93;;;36.83;;
17753;SDS011;8999;48.994;9.150;2022-12-18T03:10:42;83.57;;;37.93;;
17753;SDS011;8999;48.994;9.150;2022-12-18T03:13:19;84.80;;;37.40;;
17753;SDS011;8999;48.994;9.150;2022-12-18T03:15:53;87.17;;;39.93;;
17753;SDS011;8999;48.994;9.150;2022-12-18T03:18:28;85.13;;;38.77;;
17753;SDS011;8999;48.994;9.150;2022-12-18T03:21:03;86.47;;;39.07;;
17753;SDS011;8999;48.994;9.150;2022-12-18T03:23:38;81.53;;;38.17;;
17753;SDS011;8999;48.994;9.150;2022-12-18T03:26:12;85.00;;;38.67;;
17753;SDS011;8999;48.994;9.150;2022-12-18T03:28:49;80.70;;;38.73;;
17753;SDS011;8999;48.994;9.150;2022-12-18T03:31:23;83.33;;;35.57;;
17753;SDS011;8999;48.994;9.150;2022-12-18T03:33:55;79.77;;;35.20;;
17753;SDS011;8999;48.994;9.150;2022-12-18T03:36:30;84.57;;;35.60;;
17753;SDS011;8999;48.994;9.150;2022-12-18T03:39:02;78.27;;;34.50;;
17753;SDS011;8999;48.994;9.150;2022-12-18T03:41:36;77.53;;;33.43;;
17753;SDS011;8999;48.994;9.150;2022-12-18T03:44:14;79.43;;;33.67;;
17753;SDS011;8999;48.994;9.150;2022-12-18T03:46:52;77.23;;;34.00;;
17753;SDS011;8999;48.994;9.150;2022-12-18T03:49:30;78.23;;;34.00;;
17753;SDS011;8999;48.994;9.150;2022-12-18T03:52:06;75.60;;;32.63;;
17753;SDS011;8999;48.994;9.150;2022-12-18T03:54:40;82.87;;;33.97;;
17753;SDS011;8999;48.994;9.150;2022-12-18T03:57:13;75.57;;;32.07;;
17753;SDS011;8999;48.994;9.150;2022-12-18T03:59:49;82.00;;;33.97;;
17753;SDS011;8999;48.994;9.150;2022-12-18T04:02:23;69.40;;;31.00;;
17753;SDS011;8999;48.994;9.150;2022-12-18T04:04:56;74.93;;;33.10;;
17753;SDS011;8999;48.994;9.150;2022-12-18T04:07:29;79.80;;;31.43;;
17753;SDS011;8999;48.994;9.150;2022-12-18T04:10:01;73.70;;;30.67;;
17753;SDS011;8999;48.994;9.150;2022-12-18T04:12:34;71.53;;;31.27;;
17753;SDS011;8999;48.994;9.150;2022-12-18T04:15:10;75.20;;;32.17;;
17753;SDS011;8999;48.994;9.150;2022-12-18T04:17:43;68.93;;;29.47;;
17753;SDS011;8999;48.994;9.150;2022-12-18T04:20:18;67.40;;;29.93;;
17753;SDS011;8999;48.994;9.150;2022-12-18T04:22:50;75.30;;;31.47;;
17753;SDS011;8999;48.994;9.150;2022-12-18T04:25:22;68.77;;;28.73;;
17753;SDS011;8999;48.994;9.150;2022-12-18T04:27:54;72.17;;;30.10;;
17753;SDS011;8999;48.994;9.150;2022-12-18T04:30:26;64.30;;;28.43;;
17753;SDS011;8999;48.994;9.150;2022-12-18T04:32:58;69.37;;;28.47;;
17753;SDS011;8999;48.994;9.150;2022-12-18T04:35:30;74.43;;;32.13;;
17753;SDS011;8999;48.994;9.150;2022-12-18T04:38:01;65.20;;;28.17;;
17753;SDS011;8999;48.994;9.150;2022-12-18T04:40:36;69.07;;;30.93;;
17753;SDS011;8999;48.994;9.150;2022-12-18T04:43:08;66.90;;;29.33;;
17753;SDS011;8999;48.994;9.150;2022-12-18T04:45:41;57.07;;;26.40;;
17753;SDS011;8999;48.994;9.150;2022-12-18T04:48:13;60.10;;;26.67;;
17753;SDS011;8999;48.994;9.150;2022-12-18T04:50:44;60.13;;;26.70;;
17753;SDS011;8999;48.994;9.150;2022-12-18T04:53:16;58.47;;;25.97;;
17753;SDS011;8999;48.994;9.150;2022-12-18T04:55:48;60.17;;;27.13;;
17753;SDS011;8999;48.994;9.150;2022-12-18T04:58:19;61.70;;;31.47;;
17753;SDS011;8999;48.994;9.150;2022-12-18T05:00:52;55.43;;;25.43;;
17753;SDS011;8999;48.994;9.150;2022-12-18T05:03:24;56.90;;;24.73;;
17753;SDS011;8999;48.994;9.150;2022-12-18T05:05:55;54.30;;;24.43;;
17753;SDS011;8999;48.994;9.150;2022-12-18T05:08:27;55.57;;;24.80;;
17753;SDS011;8999;48.994;9.150;2022-12-18T05:10:59;53.63;;;25.00;;
17753;SDS011;8999;48.994;9.150;2022-12-18T05:13:31;55.30;;;26.30;;
17753;SDS011;8999;48.994;9.150;2022-12-18T05:16:05;57.37;;;25.27;;
17753;SDS011;8999;48.994;9.150;2022-12-18T05:18:37;51.67;;;27.67;;
17753;SDS011;8999;48.994;9.150;2022-12-18T05:21:09;56.17;;;26.10;;
17753;SDS011;8999;48.994;9.150;2022-12-18T05:23:41;69.57;;;32.23;;
17753;SDS011;8999;48.994;9.150;2022-12-18T05:26:14;57.73;;;25.87;;
17753;SDS011;8999;48.994;9.150;2022-12-18T05:28:48;56.73;;;26.57;;
17753;SDS011;8999;48.994;9.150;2022-12-18T05:31:21;57.13;;;25.80;;
17753;SDS011;8999;48.994;9.150;2022-12-18T05:33:52;50.00;;;23.17;;
17753;SDS011;8999;48.994;9.150;2022-12-18T05:36:24;55.87;;;24.13;;
17753;SDS011;8999;48.994;9.150;2022-12-18T05:38:56;51.20;;;23.30;;
17753;SDS011;8999;48.994;9.150;2022-12-18T05:41:28;49.97;;;22.57;;
17753;SDS011;8999;48.994;9.150;2022-12-18T05:43:59;55.33;;;24.27;;
17753;SDS011;8999;48.994;9.150;2022-12-18T05:46:34;52.00;;;24.47;;
17753;SDS011;8999;48.994;9.150;2022-12-18T05:49:07;56.67;;;24.90;;
17753;SDS011;8999;48.994;9.150;2022-12-18T05:51:39;54.80;;;25.13;;
17753;SDS011;8999;48.994;9.150;2022-12-18T05:54:10;50.97;;;23.00;;
17753;SDS011;8999;48.994;9.150;2022-12-18T05:56:42;53.23;;;23.47;;
17753;SDS011;8999;48.994;9.150;2022-12-18T05:59:14;47.50;;;22.80;;
17753;SDS011;8999;48.994;9.150;2022-12-18T06:01:47;49.63;;;22.67;;
17753;SDS011;8999;48.994;9.150;2022-12-18T06:04:18;56.40;;;26.83;;
17753;SDS011;8999;48.994;9.150;2022-12-18T06:06:50;52.83;;;26.07;;
17753;SDS011;8999;48.994;9.150;2022-12-18T06:09:22;52.13;;;23.67;;
17753;SDS011;8999;48.994;9.150;2022-12-18T06:11:54;54.53;;;25.03;;
17753;SDS011;8999;48.994;9.150;2022-12-18T06:14:35;51.30;;;23.17;;
17753;SDS011;8999;48.994;9.150;2022-12-18T06:17:14;55.20;;;22.90;;
17753;SDS011;8999;48.994;9.150;2022-12-18T06:19:46;54.63;;;24.27;;
17753;SDS011;8999;48.994;9.150;2022-12-18T06:22:18;56.90;;;23.37;;
17753;SDS011;8999;48.994;9.150;2022-12-18T06:24:50;49.67;;;22.63;;
17753;SDS011;8999;48.994;9.150;2022-12-18T06:27:22;49.37;;;23.03;;
17753;SDS011;8999;48.994;9.150;2022-12-18T06:29:53;53.37;;;23.37;;
17753;SDS011;8999;48.994;9.150;2022-12-18T06:32:26;48.63;;;22.03;;
17753;SDS011;8999;48.994;9.150;2022-12-18T06:34:59;49.10;;;21.63;;
17753;SDS011;8999;48.994;9.150;2022-12-18T06:37:31;48.50;;;22.90;;
17753;SDS011;8999;48.994;9.150;2022-12-18T06:40:03;52.27;;;22.87;;
17753;SDS011;8999;48.994;9.150;2022-12-18T06:42:35;46.57;;;21.73;;
17753;SDS011;8999;48.994;9.150;2022-12-18T06:45:07;47.77;;;22.27;;
17753;SDS011;8999;48.994;9.150;2022-12-18T06:47:40;51.43;;;22.90;;
17753;SDS011;8999;48.994;9.150;2022-12-18T06:50:12;50.97;;;22.33;;
17753;SDS011;8999;48.994;9.150;2022-12-18T06:52:44;52.10;;;23.30;;
17753;SDS011;8999;48.994;9.150;2022-12-18T06:55:15;52.60;;;23.40;;
17753;SDS011;8999;48.994;9.150;2022-12-18T06:57:47;50.60;;;22.33;;
17753;SDS011;8999;48.994;9.150;2022-12-18T07:00:19;43.77;;;22.43;;
17753;SDS011;8999;48.994;9.150;2022-12-18T07:02:52;48.90;;;21.80;;
17753;SDS011;8999;48.994;9.150;2022-12-18T07:05:23;51.03;;;22.27;;
17753;SDS011;8999;48.994;9.150;2022-12-18T07:07:55;54.10;;;22.77;;
17753;SDS011;8999;48.994;9.150;2022-12-18T07:10:26;53.10;;;22.70;;
17753;SDS011;8999;48.994;9.150;2022-12-18T07:12:58;48.27;;;23.20;;
17753;SDS011;8999;48.994;9.150;2022-12-18T07:15:30;50.60;;;21.77;;
17753;SDS011;8999;48.994;9.150;2022-12-18T07:18:03;49.23;;;22.67;;
17753;SDS011;8999;48.994;9.150;2022-12-18T07:20:34;47.17;;;22.27;;
17753;SDS011;8999;48.994;9.150;2022-12-18T07:23:06;47.10;;;22.67;;
17753;SDS011;8999;48.994;9.150;2022-12-18T07:25:38;52.37;;;22.87;;
17753;SDS011;8999;48.994;9.150;2022-12-18T07:28:09;44.87;;;21.07;;
17753;SDS011;8999;48.994;9.150;2022-12-18T07:30:42;50.37;;;22.37;;
17753;SDS011;8999;48.994;9.150;2022-12-18T07:33:15;50.10;;;22.73;;
17753;SDS011;8999;48.994;9.150;2022-12-18T07:35:47;51.13;;;23.30;;
17753;SDS011;8999;48.994;9.150;2022-12-18T07:38:19;55.17;;;23.23;;
17753;SDS011;8999;48.994;9.150;2022-12-18T07:40:50;44.77;;;21.60;;
17753;SDS011;8999;48.994;9.150;2022-12-18T07:43:22;51.07;;;22.23;;
17753;SDS011;8999;48.994;9.150;2022-12-18T07:45:54;51.27;;;23.07;;
17753;SDS011;8999;48.994;9.150;2022-12-18T07:48:27;53.33;;;23.77;;
17753;SDS011;8999;48.994;9.150;2022-12-18T07:50:58;50.73;;;22.93;;
17753;SDS011;8999;48.994;9.150;2022-12-18T07:53:30;53.57;;;23.83;;
17753;SDS011;8999;48.994;9.150;2022-12-18T07:56:03;50.57;;;22.93;;
17753;SDS011;8999;48.994;9.150;2022-12-18T07:58:36;64.87;;;27.43;;
17753;SDS011;8999;48.994;9.150;2022-12-18T08:01:08;53.70;;;25.57;;
17753;SDS011;8999;48.994;9.150;2022-12-18T08:03:42;56.90;;;24.13;;
17753;SDS011;8999;48.994;9.150;2022-12-18T08:06:13;53.30;;;23.53;;
17753;SDS011;8999;48.994;9.150;2022-12-18T08:08:45;53.83;;;24.50;;
17753;SDS011;8999;48.994;9.150;2022-12-18T08:11:17;47.53;;;22.87;;
17753;SDS011;8999;48.994;9.150;2022-12-18T08:13:48;53.00;;;23.57;;
17753;SDS011;8999;48.994;9.150;2022-12-18T08:16:20;53.87;;;23.73;;
17753;SDS011;8999;48.994;9.150;2022-12-18T08:18:54;52.00;;;23.17;;
17753;SDS011;8999;48.994;9.150;2022-12-18T08:21:26;51.67;;;23.40;;
17753;SDS011;8999;48.994;9.150;2022-12-18T08:24:00;52.43;;;24.17;;
17753;SDS011;8999;48.994;9.150;2022-12-18T08:26:32;49.03;;;22.03;;
17753;SDS011;8999;48.994;9.150;2022-12-18T08:29:03;56.37;;;24.70;;
17753;SDS011;8999;48.994;9.150;2022-12-18T08:31:35;51.77;;;23.10;;
17753;SDS011;8999;48.994;9.150;2022-12-18T08:34:08;46.40;;;21.90;;
17753;SDS011;8999;48.994;9.150;2022-12-18T08:36:40;54.17;;;25.33;;
17753;SDS011;8999;48.994;9.150;2022-12-18T08:39:12;50.57;;;22.27;;
17753;SDS011;8999;48.994;9.150;2022-12-18T08:41:43;59.30;;;23.47;;
17753;SDS011;8999;48.994;9.150;2022-12-18T08:44:35;50.17;;;22.93;;
17753;SDS011;8999;48.994;9.150;2022-12-18T08:47:08;54.13;;;24.20;;
17753;SDS011;8999;48.994;9.150;2022-12-18T08:49:41;50.47;;;23.87;;
17753;SDS011;8999;48.994;9.150;2022-12-18T08:52:13;47.33;;;23.93;;
17753;SDS011;8999;48.994;9.150;2022-12-18T08:54:45;52.53;;;24.67;;
17753;SDS011;8999;48.994;9.150;2022-12-18T08:57:16;48.20;;;24.13;;
17753;SDS011;8999;48.994;9.150;2022-12-18T08:59:48;70.80;;;35.13;;
17753;SDS011;8999;48.994;9.150;2022-12-18T09:02:19;51.83;;;25.43;;
17753;SDS011;8999;48.994;9.150;2022-12-18T09:04:52;55.63;;;25.17;;
17753;SDS011;8999;48.994;9.150;2022-12-18T09:07:24;52.43;;;24.00;;
17753;SDS011;8999;48.994;9.150;2022-12-18T09:09:56;55.10;;;25.80;;
17753;SDS011;8999;48.994;9.150;2022-12-18T09:12:28;48.93;;;22.97;;
17753;SDS011;8999;48.994;9.150;2022-12-18T09:14:59;49.27;;;22.07;;
17753;SDS011;8999;48.994;9.150;2022-12-18T09:17:31;56.57;;;23.83;;
17753;SDS011;8999;48.994;9.150;2022-12-18T09:20:05;50.07;;;23.37;;
17753;SDS011;8999;48.994;9.150;2022-12-18T09:22:37;54.93;;;22.50;;
17753;SDS011;8999;48.994;9.150;2022-12-18T09:25:09;51.13;;;24.17;;
17753;SDS011;8999;48.994;9.150;2022-12-18T09:27:41;51.87;;;23.53;;
17753;SDS011;8999;48.994;9.150;2022-12-18T09:30:12;46.63;;;23.80;;
17753;SDS011;8999;48.994;9.150;2022-12-18T09:32:44;50.93;;;22.57;;
17753;SDS011;8999;48.994;9.150;2022-12-18T09:35:17;51.30;;;23.53;;
17753;SDS011;8999;48.994;9.150;2022-12-18T09:37:49;56.83;;;24.70;;
17753;SDS011;8999;48.994;9.150;2022-12-18T09:40:21;47.90;;;23.13;;
17753;SDS011;8999;48.994;9.150;2022-12-18T09:42:56;47.73;;;22.63;;
17753;SDS011;8999;48.994;9.150;2022-12-18T09:45:29;54.27;;;24.27;;
17753;SDS011;8999;48.994;9.150;2022-12-18T09:48:02;50.73;;;24.07;;
17753;SDS011;8999;48.994;9.150;2022-12-18T09:50:37;52.23;;;23.50;;
17753;SDS011;8999;48.994;9.150;2022-12-18T09:53:12;53.60;;;24.57;;
17753;SDS011;8999;48.994;9.150;2022-12-18T09:55:47;50.33;;;23.33;;
17753;SDS011;8999;48.994;9.150;2022-12-18T09:58:20;51.93;;;24.00;;
17753;SDS011;8999;48.994;9.150;2022-12-18T10:00:56;50.67;;;24.53;;
17753;SDS011;8999;48.994;9.150;2022-12-18T10:03:28;55.23;;;24.50;;
17753;SDS011;8999;48.994;9.150;2022-12-18T10:06:01;50.00;;;24.70;;
17753;SDS011;8999;48.994;9.150;2022-12-18T10:08:39;48.07;;;22.73;;
17753;SDS011;8999;48.994;9.150;2022-12-18T10:11:24;55.70;;;25.07;;
17753;SDS011;8999;48.994;9.150;2022-12-18T10:14:04;52.87;;;25.33;;
17753;SDS011;8999;48.994;9.150;2022-12-18T10:16:40;47.20;;;23.73;;
17753;SDS011;8999;48.994;9.150;2022-12-18T10:22:13;50.47;;;23.53;;
17753;SDS011;8999;48.994;9.150;2022-12-18T10:24:52;58.37;;;27.33;;
17753;SDS011;8999;48.994;9.150;2022-12-18T10:27:26;51.33;;;24.20;;
17753;SDS011;8999;48.994;9.150;2022-12-18T10:29:58;57.17;;;25.87;;
17753;SDS011;8999;48.994;9.150;2022-12-18T10:32:32;53.17;;;24.63;;
17753;SDS011;8999;48.994;9.150;2022-12-18T10:35:04;52.63;;;25.87;;
17753;SDS011;8999;48.994;9.150;2022-12-18T10:37:38;53.93;;;26.20;;
17753;SDS011;8999;48.994;9.150;2022-12-18T10:40:30;56.10;;;26.20;;
17753;SDS011;8999;48.994;9.150;2022-12-18T10:43:03;55.63;;;25.70;;
17753;SDS011;8999;48.994;9.150;2022-12-18T10:45:35;54.23;;;24.90;;
17753;SDS011;8999;48.994;9.150;2022-12-18T10:48:17;51.27;;;25.70;;
17753;SDS011;8999;48.994;9.150;2022-12-18T10:50:50;54.80;;;25.90;;
17753;SDS011;8999;48.994;9.150;2022-12-18T10:53:24;56.50;;;26.30;;
17753;SDS011;8999;48.994;9.150;2022-12-18T10:55:57;52.03;;;26.37;;
17753;SDS011;8999;48.994;9.150;2022-12-18T10:58:31;121.20;;;51.03;;
17753;SDS011;8999;48.994;9.150;2022-12-18T11:01:05;66.87;;;28.80;;
17753;SDS011;8999;48.994;9.150;2022-12-18T11:03:40;55.50;;;22.03;;
17753;SDS011;8999;48.994;9.150;2022-12-18T11:06:13;53.10;;;23.07;;
17753;SDS011;8999;48.994;9.150;2022-12-18T11:08:56;46.93;;;21.30;;
17753;SDS011;8999;48.994;9.150;2022-12-18T11:11:29;58.53;;;24.37;;
17753;SDS011;8999;48.994;9.150;2022-12-18T11:14:03;50.43;;;22.33;;
17753;SDS011;8999;48.994;9.150;2022-12-18T11:16:36;54.47;;;22.03;;
17753;SDS011;8999;48.994;9.150;2022-12-18T11:22:17;53.33;;;22.13;;
17753;SDS011;8999;48.994;9.150;2022-12-18T11:24:55;53.57;;;23.37;;
17753;SDS011;8999;48.994;9.150;2022-12-18T11:27:28;51.50;;;23.50;;
17753;SDS011;8999;48.994;9.150;2022-12-18T11:30:07;46.10;;;22.13;;
17753;SDS011;8999;48.994;9.150;2022-12-18T11:32:39;50.93;;;21.33;;
17753;SDS011;8999;48.994;9.150;2022-12-18T11:35:14;49.30;;;23.80;;
17753;SDS011;8999;48.994;9.150;2022-12-18T11:37:48;51.43;;;24.90;;
17753;SDS011;8999;48.994;9.150;2022-12-18T11:40:24;57.77;;;27.10;;
17753;SDS011;8999;48.994;9.150;2022-12-18T11:43:00;55.97;;;24.53;;
17753;SDS011;8999;48.994;9.150;2022-12-18T11:45:39;52.40;;;24.33;;
17753;SDS011;8999;48.994;9.150;2022-12-18T11:48:13;50.43;;;24.17;;
17753;SDS011;8999;48.994;9.150;2022-12-18T11:50:47;48.77;;;24.67;;
17753;SDS011;8999;48.994;9.150;2022-12-18T11:53:21;53.40;;;22.50;;
17753;SDS011;8999;48.994;9.150;2022-12-18T11:56:05;51.70;;;22.73;;
17753;SDS011;8999;48.994;9.150;2022-12-18T11:58:53;52.50;;;22.87;;
17753;SDS011;8999;48.994;9.150;2022-12-18T12:01:33;47.10;;;22.13;;
17753;SDS011;8999;48.994;9.150;2022-12-18T12:04:17;48.70;;;23.77;;
17753;SDS011;8999;48.994;9.150;2022-12-18T12:07:12;46.83;;;21.13;;
17753;SDS011;8999;48.994;9.150;2022-12-18T12:09:51;53.53;;;21.67;;
17753;SDS011;8999;48.994;9.150;2022-12-18T12:12:32;50.87;;;24.33;;
17753;SDS011;8999;48.994;9.150;2022-12-18T12:15:22;54.47;;;25.90;;
17753;SDS011;8999;48.994;9.150;2022-12-18T12:18:00;49.90;;;23.80;;
17753;SDS011;8999;48.994;9.150;2022-12-18T12:20:37;48.57;;;23.30;;
17753;SDS011;8999;48.994;9.150;2022-12-18T12:23:15;54.83;;;24.47;;
17753;SDS011;8999;48.994;9.150;2022-12-18T12:25:55;53.10;;;24.50;;
17753;SDS011;8999;48.994;9.150;2022-12-18T12:28:36;53.50;;;25.03;;
17753;SDS011;8999;48.994;9.150;2022-12-18T12:31:19;50.03;;;22.53;;
17753;SDS011;8999;48.994;9.150;2022-12-18T12:33:56;57.63;;;24.60;;
17753;SDS011;8999;48.994;9.150;2022-12-18T12:36:36;48.97;;;22.80;;
17753;SDS011;8999;48.994;9.150;2022-12-18T12:39:13;50.50;;;25.47;;
17753;SDS011;8999;48.994;9.150;2022-12-18T12:41:47;50.50;;;24.60;;
17753;SDS011;8999;48.994;9.150;2022-12-18T12:44:39;54.20;;;25.13;;
17753;SDS011;8999;48.994;9.150;2022-12-18T12:47:14;55.83;;;25.93;;
17753;SDS011;8999;48.994;9.150;2022-12-18T12:49:48;55.37;;;25.87;;
17753;SDS011;8999;48.994;9.150;2022-12-18T12:52:24;55.97;;;25.70;;
17753;SDS011;8999;48.994;9.150;2022-12-18T12:54:59;52.97;;;24.93;;
17753;SDS011;8999;48.994;9.150;2022-12-18T12:57:33;54.90;;;25.07;;
17753;SDS011;8999;48.994;9.150;2022-12-18T13:00:09;48.13;;;22.93;;
17753;SDS011;8999;48.994;9.150;2022-12-18T13:02:45;51.53;;;24.90;;
17753;SDS011;8999;48.994;9.150;2022-12-18T13:05:23;49.40;;;24.67;;
17753;SDS011;8999;48.994;9.150;2022-12-18T13:07:57;53.33;;;24.70;;
17753;SDS011;8999;48.994;9.150;2022-12-18T13:10:32;51.40;;;24.63;;
17753;SDS011;8999;48.994;9.150;2022-12-18T13:13:06;47.97;;;22.93;;
17753;SDS011;8999;48.994;9.150;2022-12-18T13:15:39;53.60;;;24.33;;
17753;SDS011;8999;48.994;9.150;2022-12-18T13:18:14;49.40;;;23.27;;
17753;SDS011;8999;48.994;9.150;2022-12-18T13:20:48;54.20;;;25.70;;
17753;SDS011;8999;48.994;9.150;2022-12-18T13:23:26;54.43;;;24.40;;
17753;SDS011;8999;48.994;9.150;2022-12-18T13:26:00;51.43;;;24.00;;
17753;SDS011;8999;48.994;9.150;2022-12-18T13:29:02;57.07;;;27.27;;
17753;SDS011;8999;48.994;9.150;2022-12-18T13:31:59;47.17;;;23.40;;
17753;SDS011;8999;48.994;9.150;2022-12-18T13:34:32;56.20;;;24.77;;
17753;SDS011;8999;48.994;9.150;2022-12-18T13:43:30;49.80;;;24.07;;
17753;SDS011;8999;48.994;9.150;2022-12-18T13:46:05;52.47;;;24.23;;
17753;SDS011;8999;48.994;9.150;2022-12-18T13:48:52;53.80;;;24.87;;
17753;SDS011;8999;48.994;9.150;2022-12-18T13:51:26;46.77;;;22.87;;
17753;SDS011;8999;48.994;9.150;2022-12-18T13:53:59;50.50;;;24.43;;
17753;SDS011;8999;48.994;9.150;2022-12-18T13:56:32;53.90;;;24.27;;
17753;SDS011;8999;48.994;9.150;2022-12-18T13:59:06;46.97;;;22.50;;
17753;SDS011;8999;48.994;9.150;2022-12-18T14:01:47;46.47;;;21.93;;
17753;SDS011;8999;48.994;9.150;2022-12-18T14:04:24;44.33;;;22.93;;
17753;SDS011;8999;48.994;9.150;2022-12-18T14:06:58;46.93;;;23.00;;
17753;SDS011;8999;48.994;9.150;2022-12-18T14:09:34;47.80;;;22.03;;
17753;SDS011;8999;48.994;9.150;2022-12-18T14:12:11;47.73;;;21.37;;
17753;SDS011;8999;48.994;9.150;2022-12-18T14:15:05;45.80;;;22.03;;
17753;SDS011;8999;48.994;9.150;2022-12-18T14:17:38;48.93;;;22.47;;
17753;SDS011;8999;48.994;9.150;2022-12-18T14:20:14;49.13;;;21.67;;
17753;SDS011;8999;48.994;9.150;2022-12-18T14:22:54;45.40;;;21.63;;
17753;SDS011;8999;48.994;9.150;2022-12-18T14:25:27;53.30;;;22.83;;
17753;SDS011;8999;48.994;9.150;2022-12-18T14:28:02;46.47;;;22.43;;
17753;SDS011;8999;48.994;9.150;2022-12-18T14:30:44;48.70;;;21.93;;
17753;SDS011;8999;48.994;9.150;2022-12-18T14:33:17;38.67;;;18.87;;
17753;SDS011;8999;48.994;9.150;2022-12-18T14:35:54;50.93;;;24.50;;
17753;SDS011;8999;48.994;9.150;2022-12-18T14:38:29;49.57;;;23.17;;
17753;SDS011;8999;48.994;9.150;2022-12-18T14:41:03;52.67;;;21.60;;
17753;SDS011;8999;48.994;9.150;2022-12-18T14:43:37;50.27;;;22.83;;
17753;SDS011;8999;48.994;9.150;2022-12-18T14:48:57;48.17;;;21.73;;
17753;SDS011;8999;48.994;9.150;2022-12-18T14:51:29;47.03;;;21.57;;
17753;SDS011;8999;48.994;9.150;2022-12-18T14:54:04;44.53;;;19.57;;
17753;SDS011;8999;48.994;9.150;2022-12-18T14:56:42;40.17;;;18.63;;
17753;SDS011;8999;48.994;9.150;2022-12-18T14:59:15;41.63;;;19.63;;
17753;SDS011;8999;48.994;9.150;2022-12-18T15:01:50;40.30;;;18.60;;
17753;SDS011;8999;48.994;9.150;2022-12-18T15:04:29;42.67;;;19.47;;
17753;SDS011;8999;48.994;9.150;2022-12-18T15:07:04;40.70;;;19.43;;
17753;SDS011;8999;48.994;9.150;2022-12-18T15:09:41;43.60;;;20.13;;
17753;SDS011;8999;48.994;9.150;2022-12-18T15:12:33;52.43;;;22.67;;
17753;SDS011;8999;48.994;9.150;2022-12-18T15:18:12;42.93;;;19.50;;
17753;SDS011;8999;48.994;9.150;2022-12-18T15:20:45;40.83;;;19.23;;
17753;SDS011;8999;48.994;9.150;2022-12-18T15:23:19;41.60;;;19.53;;
17753;SDS011;8999;48.994;9.150;2022-12-18T15:25:57;43.43;;;22.03;;
17753;SDS011;8999;48.994;9.150;2022-12-18T15:28:34;43.50;;;20.20;;
17753;SDS011;8999;48.994;9.150;2022-12-18T15:34:01;45.00;;;20.80;;
17753;SDS011;8999;48.994;9.150;2022-12-18T15:36:50;44.10;;;21.37;;
17753;SDS011;8999;48.994;9.150;2022-12-18T15:39:22;46.23;;;21.97;;
17753;SDS011;8999;48.994;9.150;2022-12-18T15:41:55;47.70;;;22.07;;
17753;SDS011;8999;48.994;9.150;2022-12-18T15:44:44;45.43;;;21.30;;